Time;durP1;ratioP1;P1;durP2;ratioP2;P2;SDS_P1;SDS_P2;PMS_P1;PMS_P2;Temp;Humidity;BMP_temperature;BMP_pressure;BME280_temperature;BME280_humidity;BME280_pressure;Samples;Min_cycle;Max_cycle;Signal;HPM_P1;HPM_P2
2021/12/09 00:00:51;;;;;;;221.02;59.30;;;6.90;99.90;;;;;;5072861;28;20056;-69
2021/12/09 00:03:17;;;;;;;230.65;60.13;;;6.90;99.90;;;;;;5073192;28;20071;-69
2021/12/09 00:05:44;;;;;;;222.98;61.10;;;6.90;99.90;;;;;;5072025;28;21078;-69
2021/12/09 00:08:10;;;;;;;208.23;57.75;;;7.00;99.90;;;;;;5071750;28;20054;-70
2021/12/09 00:10:37;;;;;;;207.00;56.88;;;7.00;99.90;;;;;;5071845;28;20115;-69
2021/12/09 00:13:04;;;;;;;168.27;53.08;;;7.00;99.90;;;;;;5071917;28;20466;-68
2021/12/09 00:15:30;;;;;;;211.18;58.55;;;7.00;99.90;;;;;;5071850;28;20056;-68
2021/12/09 00:17:57;;;;;;;192.27;56.40;;;7.00;99.90;;;;;;5058435;28;20037;-70
2021/12/09 00:20:22;;;;;;;189.55;56.05;;;7.00;99.90;;;;;;5078733;28;20029;-69
2021/12/09 00:22:48;;;;;;;158.23;52.88;;;7.00;99.90;;;;;;5082945;28;20056;-68
2021/12/09 00:25:15;;;;;;;331.00;70.60;;;7.00;99.90;;;;;;5086621;28;20048;-67
2021/12/09 00:27:41;;;;;;;188.23;53.75;;;7.00;99.90;;;;;;5079039;28;20024;-68
2021/12/09 00:30:09;;;;;;;171.88;52.47;;;7.00;99.90;;;;;;5058854;28;20036;-68
2021/12/09 00:32:35;;;;;;;221.18;54.28;;;7.00;99.90;;;;;;5077021;28;20024;-68
2021/12/09 00:35:03;;;;;;;212.63;55.58;;;7.00;99.90;;;;;;5077953;28;20029;-69
2021/12/09 00:37:36;;;;;;;183.15;51.83;;;6.90;99.90;;;;;;5093828;28;20026;-69
2021/12/09 00:40:03;;;;;;;244.98;62.13;;;7.00;99.90;;;;;;5096739;28;20025;-69
2021/12/09 00:42:29;;;;;;;242.70;58.13;;;7.00;99.90;;;;;;5078471;28;20461;-69
2021/12/09 00:44:55;;;;;;;195.20;56.95;;;7.00;99.90;;;;;;5096494;28;20030;-69
2021/12/09 00:47:23;;;;;;;168.38;52.65;;;7.00;99.90;;;;;;5096493;28;20095;-70
2021/12/09 00:49:49;;;;;;;170.82;53.85;;;7.00;99.90;;;;;;5078479;28;20040;-69
2021/12/09 00:52:16;;;;;;;206.93;55.05;;;7.00;99.90;;;;;;5096207;28;20472;-69
2021/12/09 00:54:49;;;;;;;180.43;53.88;;;7.00;99.90;;;;;;5096337;28;20473;-69
2021/12/09 00:57:14;;;;;;;181.02;53.60;;;7.00;99.90;;;;;;5077957;28;20122;-68
2021/12/09 00:59:40;;;;;;;168.07;50.70;;;7.00;99.90;;;;;;5094988;28;20114;-69
2021/12/09 01:02:06;;;;;;;215.10;57.55;;;7.00;99.90;;;;;;5077998;28;20134;-69
2021/12/09 01:04:31;;;;;;;259.48;54.72;;;7.00;99.90;;;;;;5096053;28;20020;-69
2021/12/09 01:06:57;;;;;;;158.05;49.10;;;7.00;99.90;;;;;;5078022;28;20374;-68
2021/12/09 01:09:23;;;;;;;175.60;50.63;;;7.00;99.90;;;;;;5094344;28;20040;-68
2021/12/09 01:11:48;;;;;;;205.75;55.63;;;7.00;99.90;;;;;;5095652;28;20032;-69
2021/12/09 01:14:14;;;;;;;186.95;52.40;;;7.00;99.90;;;;;;5096771;28;20020;-69
2021/12/09 01:16:40;;;;;;;196.55;51.80;;;7.00;99.90;;;;;;5093251;28;20028;-69
2021/12/09 01:19:06;;;;;;;167.75;48.33;;;7.00;99.90;;;;;;5106854;28;20032;-69
2021/12/09 01:21:32;;;;;;;164.80;50.40;;;7.00;99.90;;;;;;5106691;28;20032;-69
2021/12/09 01:23:57;;;;;;;220.50;56.65;;;7.00;99.90;;;;;;5104832;28;20032;-68
2021/12/09 01:26:25;;;;;;;151.85;46.17;;;7.00;99.90;;;;;;5097224;28;20040;-68
2021/12/09 01:28:57;;;;;;;207.40;54.38;;;7.00;99.90;;;;;;5077215;28;20036;-68
2021/12/09 01:31:33;;;;;;;194.57;53.60;;;7.00;99.90;;;;;;5095978;28;20027;-68
2021/12/09 01:34:02;;;;;;;187.63;52.00;;;7.00;99.90;;;;;;5094727;28;20475;-69
2021/12/09 01:36:29;;;;;;;120.18;44.55;;;7.00;99.90;;;;;;5095377;28;20157;-69
2021/12/09 01:38:55;;;;;;;195.13;52.42;;;7.00;99.90;;;;;;5077023;28;20024;-69
2021/12/09 01:41:21;;;;;;;197.23;55.22;;;7.00;99.90;;;;;;5095355;28;20110;-69
2021/12/09 01:43:48;;;;;;;124.20;45.45;;;7.00;99.90;;;;;;5095871;28;20024;-69
2021/12/09 01:46:16;;;;;;;153.13;49.58;;;7.00;99.90;;;;;;5093921;28;20039;-69
2021/12/09 01:48:44;;;;;;;145.00;47.97;;;7.00;99.90;;;;;;5095108;28;20063;-69
2021/12/09 01:51:11;;;;;;;133.23;45.53;;;7.00;99.90;;;;;;5086597;28;20030;-69
2021/12/09 01:53:37;;;;;;;136.02;45.85;;;7.00;99.90;;;;;;5073887;28;20051;-69
2021/12/09 01:56:08;;;;;;;171.18;50.47;;;7.00;99.90;;;;;;5075087;28;20020;-70
2021/12/09 01:58:34;;;;;;;123.85;45.20;;;7.00;99.90;;;;;;5074918;28;20048;-69
2021/12/09 02:01:00;;;;;;;140.55;48.67;;;7.00;99.90;;;;;;5074628;28;20131;-69
2021/12/09 02:03:26;;;;;;;147.30;47.80;;;7.00;99.90;;;;;;5056808;28;20523;-69
2021/12/09 02:05:52;;;;;;;135.80;46.35;;;7.00;99.90;;;;;;5073589;28;20036;-69
2021/12/09 02:08:18;;;;;;;187.65;51.60;;;7.00;99.90;;;;;;5074287;28;20060;-69
2021/12/09 02:10:46;;;;;;;176.70;52.38;;;7.00;99.90;;;;;;5080753;28;20024;-69
2021/12/09 02:13:13;;;;;;;151.75;45.97;;;7.00;99.90;;;;;;5084017;28;20016;-68
2021/12/09 02:15:39;;;;;;;180.05;51.30;;;7.00;99.90;;;;;;5084362;28;20024;-68
2021/12/09 02:18:08;;;;;;;128.43;46.63;;;7.00;99.90;;;;;;5075003;28;20039;-69
2021/12/09 02:20:35;;;;;;;158.13;49.60;;;7.00;99.90;;;;;;5073322;28;20024;-68
2021/12/09 02:23:07;;;;;;;156.65;49.47;;;7.00;99.90;;;;;;5074825;28;20060;-68
2021/12/09 02:25:33;;;;;;;177.40;49.03;;;7.00;99.90;;;;;;5057050;28;20455;-69
2021/12/09 02:27:59;;;;;;;137.70;48.60;;;7.00;99.90;;;;;;5073397;28;20028;-69
2021/12/09 02:30:24;;;;;;;122.93;45.25;;;7.00;99.90;;;;;;5074037;28;21955;-69
2021/12/09 02:32:50;;;;;;;121.63;45.10;;;7.00;99.90;;;;;;5076664;28;20100;-69
2021/12/09 02:35:16;;;;;;;145.98;46.65;;;7.00;99.90;;;;;;5074094;28;20050;-68
2021/12/09 02:37:42;;;;;;;125.93;44.95;;;7.00;99.90;;;;;;5056111;28;20031;-68
2021/12/09 02:40:09;;;;;;;134.45;46.95;;;7.00;99.90;;;;;;5073486;28;20059;-69
2021/12/09 02:42:35;;;;;;;145.60;50.13;;;7.00;99.90;;;;;;5074636;28;20332;-69
2021/12/09 02:45:04;;;;;;;164.35;50.42;;;7.00;99.90;;;;;;5074181;28;20086;-69
2021/12/09 02:47:30;;;;;;;243.68;57.15;;;7.00;99.90;;;;;;5055985;28;20449;-69
2021/12/09 02:49:55;;;;;;;161.90;50.38;;;7.00;99.90;;;;;;5055971;28;20128;-69
2021/12/09 02:52:21;;;;;;;166.10;49.38;;;7.00;99.90;;;;;;5074200;28;20029;-69
2021/12/09 02:54:47;;;;;;;125.60;44.13;;;7.00;99.90;;;;;;5073904;28;20036;-69
2021/12/09 02:57:13;;;;;;;140.05;47.47;;;7.00;99.90;;;;;;5088659;28;20024;-68
2021/12/09 02:59:39;;;;;;;142.30;47.03;;;6.90;99.90;;;;;;5092720;28;20028;-68
2021/12/09 03:02:06;;;;;;;109.07;41.08;;;7.00;99.90;;;;;;5076036;28;20048;-68
2021/12/09 03:04:49;;;;;;;185.93;50.53;;;6.90;99.90;;;;;;5075803;28;20027;-68
2021/12/09 03:07:25;;;;;;;153.43;48.47;;;7.00;99.90;;;;;;5091877;28;20024;-68
2021/12/09 03:10:00;;;;;;;127.35;43.65;;;7.00;99.90;;;;;;5084677;28;20036;-68
2021/12/09 03:12:32;;;;;;;142.13;46.33;;;7.00;99.90;;;;;;5076405;28;20024;-68
2021/12/09 03:14:58;;;;;;;115.88;44.08;;;6.90;99.90;;;;;;5073769;28;20035;-68
2021/12/09 03:17:25;;;;;;;119.50;41.95;;;6.90;99.90;;;;;;5072488;28;20370;-69
2021/12/09 03:19:51;;;;;;;154.07;47.83;;;7.00;99.90;;;;;;5072578;28;20078;-69
2021/12/09 03:22:17;;;;;;;125.25;43.53;;;7.00;99.90;;;;;;5071827;28;20116;-69
2021/12/09 03:24:44;;;;;;;147.40;44.75;;;7.00;99.90;;;;;;5055851;28;20494;-69
2021/12/09 03:27:09;;;;;;;112.38;41.58;;;6.90;99.90;;;;;;5072279;28;20031;-69
2021/12/09 03:29:36;;;;;;;110.45;40.83;;;6.90;99.90;;;;;;5055229;28;20028;-68
2021/12/09 03:32:05;;;;;;;111.22;38.88;;;6.90;99.90;;;;;;5073565;28;20025;-68
2021/12/09 03:34:33;;;;;;;111.55;41.40;;;6.90;99.90;;;;;;5073465;28;20033;-68
2021/12/09 03:37:02;;;;;;;133.05;43.20;;;6.90;99.90;;;;;;5073459;28;20128;-68
2021/12/09 03:39:30;;;;;;;102.00;39.13;;;6.90;99.90;;;;;;5073421;28;20036;-68
2021/12/09 03:41:57;;;;;;;89.70;36.75;;;6.90;99.90;;;;;;5073465;28;20021;-68
2021/12/09 03:44:24;;;;;;;92.63;36.75;;;6.90;99.90;;;;;;5055160;28;20058;-68
2021/12/09 03:46:52;;;;;;;88.93;37.25;;;6.90;99.90;;;;;;5076393;28;20367;-69
2021/12/09 03:49:19;;;;;;;82.45;37.17;;;6.90;99.90;;;;;;5093575;28;20118;-68
2021/12/09 03:51:45;;;;;;;88.82;36.30;;;6.90;99.90;;;;;;5097081;28;20039;-69
2021/12/09 03:54:11;;;;;;;79.88;33.70;;;6.90;99.90;;;;;;5097542;28;20024;-69
2021/12/09 03:56:39;;;;;;;66.63;30.45;;;6.90;99.90;;;;;;5097413;28;20024;-69
2021/12/09 03:59:06;;;;;;;66.70;31.23;;;6.90;99.90;;;;;;5096238;28;20028;-68
2021/12/09 04:01:34;;;;;;;66.82;30.92;;;6.90;99.90;;;;;;5099468;28;20044;-69
2021/12/09 04:03:59;;;;;;;71.82;32.72;;;6.90;99.90;;;;;;5090835;28;20063;-68
2021/12/09 04:06:27;;;;;;;70.03;31.17;;;6.90;99.90;;;;;;5105083;28;20374;-69
2021/12/09 04:08:53;;;;;;;62.95;30.45;;;7.00;99.90;;;;;;5096997;28;20122;-69
2021/12/09 04:11:18;;;;;;;60.08;29.40;;;6.90;99.90;;;;;;5100640;28;20512;-69
2021/12/09 04:13:44;;;;;;;57.53;29.33;;;7.00;99.90;;;;;;5097094;28;20369;-69
2021/12/09 04:16:11;;;;;;;47.67;25.65;;;7.00;99.90;;;;;;5097269;28;20024;-69
2021/12/09 04:18:39;;;;;;;62.95;29.63;;;6.90;99.90;;;;;;5079174;28;20032;-69
2021/12/09 04:21:05;;;;;;;61.15;29.05;;;6.90;99.90;;;;;;5095445;28;20367;-69
2021/12/09 04:23:31;;;;;;;53.72;27.10;;;6.90;99.90;;;;;;5077673;28;20044;-69
2021/12/09 04:25:58;;;;;;;51.30;27.33;;;6.90;99.90;;;;;;5076496;28;20147;-70
2021/12/09 04:28:24;;;;;;;67.10;30.38;;;6.90;99.90;;;;;;5076965;28;20488;-70
2021/12/09 04:30:50;;;;;;;57.85;28.17;;;6.90;99.90;;;;;;5058477;28;20032;-69
2021/12/09 04:33:16;;;;;;;63.88;30.77;;;6.90;99.90;;;;;;5075123;28;20028;-68
2021/12/09 04:35:42;;;;;;;82.78;41.88;;;6.90;99.90;;;;;;5075171;28;20020;-67
2021/12/09 04:38:08;;;;;;;101.13;50.50;;;6.90;99.90;;;;;;5058369;28;20391;-68
2021/12/09 04:40:34;;;;;;;96.07;50.97;;;6.90;99.90;;;;;;5075918;28;20067;-68
2021/12/09 04:43:00;;;;;;;122.50;57.13;;;6.90;99.90;;;;;;5076745;28;20048;-70
2021/12/09 04:45:28;;;;;;;63.50;35.78;;;6.90;99.90;;;;;;5076647;28;20082;-68
2021/12/09 04:47:54;;;;;;;65.07;34.65;;;6.90;99.90;;;;;;5074798;28;20082;-69
2021/12/09 04:50:20;;;;;;;81.55;40.22;;;6.90;99.90;;;;;;5076195;28;20028;-69
2021/12/09 04:52:46;;;;;;;69.22;33.83;;;6.90;99.90;;;;;;5076393;28;20332;-69
2021/12/09 04:55:11;;;;;;;54.13;29.38;;;6.90;99.90;;;;;;5075854;28;20027;-70
2021/12/09 04:57:42;;;;;;;49.75;27.85;;;6.90;99.90;;;;;;5084066;28;20027;-70
2021/12/09 05:00:12;;;;;;;56.28;27.88;;;6.90;99.90;;;;;;5097174;28;20027;-68
2021/12/09 05:05:22;;;;;;;55.75;28.55;;;6.90;99.90;;;;;;5099580;28;20108;-68
2021/12/09 05:07:48;;;;;;;57.83;27.63;;;6.90;99.90;;;;;;5096010;28;20142;-68
2021/12/09 05:10:14;;;;;;;58.67;30.25;;;6.90;99.90;;;;;;5095984;28;20032;-69
2021/12/09 05:12:40;;;;;;;50.70;28.08;;;6.90;99.90;;;;;;5077930;28;20477;-69
2021/12/09 05:15:06;;;;;;;54.85;27.65;;;6.90;99.90;;;;;;5095813;28;20028;-72
2021/12/09 05:17:31;;;;;;;55.15;29.73;;;6.90;99.90;;;;;;5094879;28;20027;-70
2021/12/09 05:19:57;;;;;;;63.80;32.03;;;6.90;99.90;;;;;;5076065;28;20424;-71
2021/12/09 05:22:23;;;;;;;53.78;27.90;;;6.90;99.90;;;;;;5095252;28;20198;-69
2021/12/09 05:24:50;;;;;;;58.05;30.13;;;6.90;99.90;;;;;;5094252;28;20040;-71
2021/12/09 05:27:17;;;;;;;53.67;30.33;;;6.90;99.90;;;;;;5094349;28;20371;-69
2021/12/09 05:29:44;;;;;;;57.42;31.73;;;6.90;99.90;;;;;;5094629;28;20073;-69
2021/12/09 05:32:12;;;;;;;54.72;30.33;;;6.90;99.90;;;;;;5085692;28;20090;-70
2021/12/09 05:34:47;;;;;;;51.90;29.02;;;6.90;99.90;;;;;;5082464;28;20021;-70
2021/12/09 05:37:16;;;;;;;59.27;36.70;;;6.90;99.90;;;;;;5093287;28;20028;-69
2021/12/09 05:39:42;;;;;;;48.53;30.00;;;6.90;99.90;;;;;;5071348;28;20346;-70
2021/12/09 05:42:10;;;;;;;49.83;27.95;;;6.90;99.90;;;;;;5084675;28;20032;-69
2021/12/09 05:44:37;;;;;;;40.58;24.60;;;6.90;99.90;;;;;;5095159;28;20159;-70
2021/12/09 05:47:05;;;;;;;41.10;24.73;;;6.90;99.90;;;;;;5094932;28;20032;-70
2021/12/09 05:49:32;;;;;;;52.42;27.33;;;6.90;99.90;;;;;;5094271;28;20028;-70
2021/12/09 05:51:58;;;;;;;41.83;24.83;;;6.90;99.90;;;;;;5083422;28;20477;-69
2021/12/09 05:54:24;;;;;;;44.72;25.45;;;6.90;99.90;;;;;;5072238;28;20032;-69
2021/12/09 05:56:50;;;;;;;44.53;25.73;;;6.90;99.90;;;;;;5077065;28;20024;-70
2021/12/09 05:59:16;;;;;;;42.75;26.35;;;6.90;99.90;;;;;;5080567;28;20036;-70
2021/12/09 06:01:42;;;;;;;46.15;27.05;;;6.90;99.90;;;;;;5072892;28;20440;-69
2021/12/09 06:04:09;;;;;;;49.03;31.35;;;6.90;99.90;;;;;;5095450;28;20020;-70
2021/12/09 06:06:36;;;;;;;54.78;33.50;;;6.90;99.90;;;;;;5076797;28;20030;-69
2021/12/09 06:09:04;;;;;;;49.88;30.20;;;6.90;99.90;;;;;;5074367;28;20122;-69
2021/12/09 06:11:30;;;;;;;48.35;28.88;;;6.90;99.90;;;;;;5076155;28;20432;-69
2021/12/09 06:13:56;;;;;;;44.65;28.30;;;6.90;99.90;;;;;;5091631;28;20466;-70
2021/12/09 06:16:24;;;;;;;52.45;32.05;;;6.90;99.90;;;;;;5073114;28;20024;-72
2021/12/09 06:18:50;;;;;;;51.65;33.05;;;6.90;99.90;;;;;;5093695;28;20103;-69
2021/12/09 06:21:17;;;;;;;54.53;36.42;;;6.90;99.90;;;;;;5094245;28;20024;-70
2021/12/09 06:23:42;;;;;;;62.65;41.83;;;7.00;99.90;;;;;;5091761;28;20047;-69
2021/12/09 06:26:08;;;;;;;60.58;43.90;;;7.00;99.90;;;;;;5094075;28;20035;-68
2021/12/09 06:28:34;;;;;;;67.85;50.22;;;7.00;99.90;;;;;;5092403;28;20042;-72
2021/12/09 06:31:00;;;;;;;75.03;55.17;;;7.00;99.90;;;;;;5091043;28;20047;-69
2021/12/09 06:33:26;;;;;;;68.03;50.25;;;7.00;99.90;;;;;;5086862;28;20052;-68
2021/12/09 06:35:52;;;;;;;89.50;68.95;;;7.00;99.90;;;;;;5093931;28;20091;-70
2021/12/09 06:38:18;;;;;;;98.57;70.78;;;7.00;99.90;;;;;;5081202;28;20099;-70
2021/12/09 06:40:44;;;;;;;102.65;78.75;;;7.00;99.90;;;;;;5094636;28;20477;-70
2021/12/09 06:43:11;;;;;;;69.03;50.03;;;7.00;99.90;;;;;;5093793;28;20016;-72
2021/12/09 06:45:37;;;;;;;71.20;44.08;;;7.00;99.90;;;;;;5083257;28;20048;-71
2021/12/09 06:48:03;;;;;;;54.88;35.35;;;7.00;99.90;;;;;;5097432;28;20043;-73
2021/12/09 06:50:29;;;;;;;60.45;34.10;;;7.00;99.90;;;;;;5091954;28;20020;-73
2021/12/09 06:52:55;;;;;;;54.67;33.90;;;7.00;99.90;;;;;;5068872;28;20028;-69
2021/12/09 06:55:21;;;;;;;60.47;36.25;;;7.00;99.90;;;;;;5081872;28;20106;-68
2021/12/09 06:57:48;;;;;;;55.50;33.53;;;7.00;99.90;;;;;;5078675;28;20036;-72
2021/12/09 07:00:34;;;;;;;51.38;31.85;;;7.00;99.90;;;;;;5086394;28;20473;-72
2021/12/09 07:03:01;;;;;;;60.83;32.13;;;7.00;99.90;;;;;;5084526;28;20044;-70
2021/12/09 07:05:29;;;;;;;58.67;35.50;;;7.00;99.90;;;;;;5078414;28;20055;-72
2021/12/09 07:07:56;;;;;;;64.32;38.60;;;7.00;99.90;;;;;;5080482;28;20033;-71
2021/12/09 07:10:23;;;;;;;47.97;30.40;;;7.10;99.90;;;;;;5079405;28;20089;-72
2021/12/09 07:12:49;;;;;;;54.42;31.65;;;7.10;99.90;;;;;;5084678;28;20036;-73
2021/12/09 07:15:16;;;;;;;56.80;37.70;;;7.00;99.90;;;;;;5067521;28;20090;-71
2021/12/09 07:17:42;;;;;;;63.22;38.63;;;7.00;99.90;;;;;;5059760;28;20024;-70
2021/12/09 07:20:12;;;;;;;64.50;39.95;;;7.00;99.90;;;;;;5083486;28;20024;-69
2021/12/09 07:22:38;;;;;;;64.50;39.40;;;7.00;99.90;;;;;;5065148;28;20025;-71
2021/12/09 07:25:05;;;;;;;65.70;38.75;;;7.10;99.90;;;;;;5084323;28;20032;-66
2021/12/09 07:27:31;;;;;;;61.83;40.65;;;7.10;99.90;;;;;;5082454;28;20060;-69
2021/12/09 07:29:57;;;;;;;70.05;42.28;;;7.10;99.90;;;;;;5065892;28;20086;-70
2021/12/09 07:32:22;;;;;;;59.83;37.95;;;7.10;99.90;;;;;;5087396;28;20040;-74
2021/12/09 07:34:48;;;;;;;57.60;33.38;;;7.10;99.90;;;;;;5064641;28;20043;-73
2021/12/09 07:37:14;;;;;;;58.42;32.45;;;7.10;99.90;;;;;;5085484;28;20031;-73
2021/12/09 07:39:40;;;;;;;63.35;36.50;;;7.10;99.90;;;;;;5085229;28;20485;-72
2021/12/09 07:42:06;;;;;;;56.60;32.58;;;7.10;99.90;;;;;;5097377;28;20034;-72
2021/12/09 07:44:32;;;;;;;63.00;31.50;;;7.10;99.90;;;;;;5083098;28;20412;-73
2021/12/09 07:46:58;;;;;;;59.75;31.42;;;7.20;99.90;;;;;;5069420;28;20024;-68
2021/12/09 07:49:25;;;;;;;61.80;30.80;;;7.20;99.90;;;;;;5080644;28;20048;-70
2021/12/09 07:51:59;;;;;;;58.85;32.80;;;7.20;99.90;;;;;;5087503;28;20024;-69
2021/12/09 07:54:25;;;;;;;61.33;33.88;;;7.20;99.90;;;;;;5095349;28;20583;-70
2021/12/09 07:56:51;;;;;;;65.65;35.20;;;7.20;99.90;;;;;;5096537;28;20104;-69
2021/12/09 07:59:17;;;;;;;52.92;28.27;;;7.20;99.90;;;;;;5096414;28;20082;-68
2021/12/09 08:01:44;;;;;;;53.55;27.98;;;7.20;99.90;;;;;;5097347;28;20467;-68
2021/12/09 08:04:10;;;;;;;58.42;30.60;;;7.30;99.90;;;;;;5097264;28;20056;-68
2021/12/09 08:06:38;;;;;;;65.07;33.70;;;7.30;99.90;;;;;;5097055;28;20047;-68
2021/12/09 08:09:05;;;;;;;50.10;28.83;;;7.30;99.90;;;;;;5078537;28;20044;-68
2021/12/09 08:11:33;;;;;;;47.53;25.58;;;7.30;99.90;;;;;;5095778;28;20028;-69
2021/12/09 08:13:59;;;;;;;41.53;24.45;;;7.30;99.90;;;;;;5097125;28;20020;-69
2021/12/09 08:16:25;;;;;;;46.55;26.58;;;7.30;99.90;;;;;;5095705;28;20028;-69
2021/12/09 08:18:54;;;;;;;57.60;29.40;;;7.30;99.90;;;;;;5097102;28;20031;-69
2021/12/09 08:21:25;;;;;;;55.60;30.27;;;7.30;99.90;;;;;;5078748;28;20027;-69
2021/12/09 08:23:51;;;;;;;46.42;27.48;;;7.30;99.90;;;;;;5097779;28;20074;-69
2021/12/09 08:26:18;;;;;;;41.17;24.33;;;7.40;99.90;;;;;;5097202;28;20092;-69
2021/12/09 08:28:44;;;;;;;49.25;27.40;;;7.40;99.90;;;;;;5078671;28;20043;-68
2021/12/09 08:31:10;;;;;;;58.20;29.30;;;7.40;99.90;;;;;;5095704;28;20020;-69
2021/12/09 08:33:35;;;;;;;61.95;33.70;;;7.40;99.90;;;;;;5099417;28;20149;-68
2021/12/09 08:36:01;;;;;;;55.05;29.90;;;7.30;99.90;;;;;;5106730;28;20521;-68
2021/12/09 08:38:27;;;;;;;46.78;26.90;;;7.30;99.90;;;;;;5098949;28;20032;-68
2021/12/09 08:40:54;;;;;;;41.97;24.20;;;7.30;99.90;;;;;;5101076;28;20115;-69
2021/12/09 08:43:20;;;;;;;58.72;27.67;;;7.30;99.90;;;;;;5078786;28;20032;-67
2021/12/09 08:45:48;;;;;;;61.67;29.13;;;7.40;99.90;;;;;;5078590;28;20102;-68
2021/12/09 08:48:14;;;;;;;57.63;30.80;;;7.30;99.90;;;;;;5078217;28;20085;-69
2021/12/09 08:50:43;;;;;;;58.25;31.65;;;7.30;99.90;;;;;;5097165;28;20120;-68
2021/12/09 08:53:11;;;;;;;54.38;29.17;;;7.30;99.90;;;;;;5096807;28;20099;-70
2021/12/09 08:55:37;;;;;;;61.80;31.92;;;7.30;99.90;;;;;;5096221;28;20024;-69
2021/12/09 08:58:04;;;;;;;57.25;31.20;;;7.40;99.90;;;;;;5077979;28;20028;-69
2021/12/09 09:00:32;;;;;;;43.90;26.20;;;7.40;99.90;;;;;;5096210;28;20024;-69
2021/12/09 09:02:59;;;;;;;54.47;27.30;;;7.40;99.90;;;;;;5095921;28;20036;-69
2021/12/09 09:05:25;;;;;;;52.17;28.45;;;7.40;99.90;;;;;;5077952;28;20032;-68
2021/12/09 09:07:51;;;;;;;48.63;27.65;;;7.40;99.90;;;;;;5095961;28;20028;-68
2021/12/09 09:10:22;;;;;;;60.88;31.67;;;7.40;99.90;;;;;;5094506;28;20035;-69
2021/12/09 09:12:48;;;;;;;61.50;30.80;;;7.40;99.90;;;;;;5096107;28;20071;-69
2021/12/09 09:15:17;;;;;;;62.35;31.27;;;7.40;99.90;;;;;;5094750;28;20028;-69
2021/12/09 09:17:43;;;;;;;50.58;27.15;;;7.40;99.90;;;;;;5077789;28;20035;-69
2021/12/09 09:20:12;;;;;;;54.70;28.48;;;7.40;99.90;;;;;;5095871;28;20104;-69
2021/12/09 09:22:39;;;;;;;55.00;28.95;;;7.40;99.90;;;;;;5096198;28;20099;-69
2021/12/09 09:25:09;;;;;;;60.53;28.55;;;7.40;99.90;;;;;;5095907;28;20028;-69
2021/12/09 09:27:35;;;;;;;64.43;29.50;;;7.40;99.90;;;;;;5081388;28;20032;-68
2021/12/09 09:30:03;;;;;;;58.38;27.92;;;7.40;99.90;;;;;;5091804;28;20028;-68
2021/12/09 09:32:28;;;;;;;832.75;176.75;;;7.40;99.90;;;;;;5083901;28;20458;-68
2021/12/09 09:34:54;;;;;;;415.60;115.18;;;7.40;99.90;;;;;;5077686;28;20035;-68
2021/12/09 09:37:21;;;;;;;449.88;114.95;;;7.40;99.90;;;;;;5095832;28;20462;-67
2021/12/09 09:39:47;;;;;;;149.15;47.63;;;7.40;99.90;;;;;;5077429;28;20032;-69
2021/12/09 09:44:48;;;;;;;120.65;47.17;;;7.40;99.90;;;;;;5095288;28;20101;-68
2021/12/09 09:47:16;;;;;;;210.65;66.03;;;7.40;99.90;;;;;;5077080;28;20024;-69
2021/12/09 09:49:43;;;;;;;59.38;29.23;;;7.40;99.90;;;;;;5077131;28;20043;-69
2021/12/09 09:52:11;;;;;;;63.47;31.08;;;7.40;99.90;;;;;;5077267;28;20389;-69
2021/12/09 09:54:38;;;;;;;72.28;31.90;;;7.40;99.90;;;;;;5076942;28;20039;-69
2021/12/09 09:57:05;;;;;;;59.08;31.20;;;7.40;99.90;;;;;;5076644;28;20035;-69
2021/12/09 09:59:31;;;;;;;63.13;31.73;;;7.40;99.90;;;;;;5076938;28;20115;-68
2021/12/09 10:01:57;;;;;;;64.47;31.45;;;7.40;99.90;;;;;;5076704;28;20520;-69
2021/12/09 10:04:43;;;;;;;62.45;31.15;;;7.40;99.90;;;;;;5077017;28;20024;-70
2021/12/09 10:07:10;;;;;;;58.88;31.45;;;7.40;99.90;;;;;;5095054;28;20038;-70
2021/12/09 10:09:36;;;;;;;64.25;32.47;;;7.40;99.90;;;;;;5076407;28;20474;-70
2021/12/09 10:12:02;;;;;;;57.13;30.80;;;7.40;99.90;;;;;;5093777;28;20031;-70
2021/12/09 10:14:34;;;;;;;63.45;32.38;;;7.50;99.90;;;;;;5076825;28;20470;-70
2021/12/09 10:17:10;;;;;;;68.75;33.72;;;7.50;99.90;;;;;;5076999;28;20035;-68
2021/12/09 10:19:50;;;;;;;60.45;31.98;;;7.50;99.90;;;;;;5093962;28;20028;-69
2021/12/09 10:22:20;;;;;;;75.72;35.65;;;7.50;99.90;;;;;;5079569;28;20024;-71
2021/12/09 10:24:50;;;;;;;71.15;35.65;;;7.50;99.90;;;;;;5090417;28;20032;-67
2021/12/09 10:27:24;;;;;;;64.90;32.05;;;7.50;99.90;;;;;;5102335;28;20020;-68
2021/12/09 10:29:51;;;;;;;66.90;33.42;;;7.60;99.90;;;;;;5094873;28;20035;-69
2021/12/09 10:32:25;;;;;;;58.13;31.20;;;7.50;99.90;;;;;;5094834;28;20169;-69
2021/12/09 10:34:51;;;;;;;65.90;33.78;;;7.60;99.90;;;;;;5077091;28;20036;-68
2021/12/09 10:37:22;;;;;;;56.58;31.00;;;7.60;99.90;;;;;;5076258;28;20035;-69
2021/12/09 10:39:53;;;;;;;55.58;29.83;;;7.60;99.90;;;;;;5093064;28;20031;-68
2021/12/09 10:42:28;;;;;;;63.50;32.28;;;7.60;99.90;;;;;;5076084;28;20473;-69
2021/12/09 10:45:09;;;;;;;57.28;29.55;;;7.60;99.90;;;;;;5094197;28;20145;-70
2021/12/09 10:50:37;;;;;;;52.38;26.83;;;7.60;99.90;;;;;;5094533;28;20044;-70
2021/12/09 10:55:49;;;;;;;49.30;27.75;;;7.60;99.90;;;;;;5094851;28;20054;-68
2021/12/09 10:58:18;;;;;;;54.50;29.83;;;7.60;99.90;;;;;;5094239;28;20024;-70
2021/12/09 11:00:52;;;;;;;52.15;28.27;;;7.60;99.90;;;;;;5075128;28;20035;-69
2021/12/09 11:03:23;;;;;;;46.53;25.92;;;7.60;99.90;;;;;;5093986;28;20030;-69
2021/12/09 11:05:59;;;;;;;50.13;26.70;;;7.60;99.90;;;;;;5092658;28;20435;-70
2021/12/09 11:08:30;;;;;;;49.90;25.80;;;7.60;99.90;;;;;;5093654;28;20036;-69
2021/12/09 11:11:19;;;;;;;52.28;26.60;;;7.60;99.90;;;;;;5094140;28;20055;-69
2021/12/09 11:13:48;;;;;;;61.03;27.75;;;7.50;99.90;;;;;;5083279;28;20036;-69
2021/12/09 11:16:40;;;;;;;57.63;27.40;;;7.50;99.90;;;;;;5094570;28;20466;-69
2021/12/09 11:19:08;;;;;;;59.70;31.27;;;7.50;99.90;;;;;;5086349;28;20035;-68
2021/12/09 11:21:38;;;;;;;70.20;34.67;;;7.50;99.90;;;;;;5100947;28;20081;-68
2021/12/09 11:24:11;;;;;;;58.60;30.42;;;7.50;99.90;;;;;;5075940;28;20052;-68
2021/12/09 11:27:01;;;;;;;59.65;29.75;;;7.50;99.90;;;;;;5075869;28;20035;-68
2021/12/09 11:29:43;;;;;;;62.17;30.80;;;7.50;99.90;;;;;;5092347;28;20032;-68
2021/12/09 11:34:55;;;;;;;61.47;31.52;;;7.50;99.90;;;;;;5093716;28;20036;-68
2021/12/09 11:39:55;;;;;;;59.05;31.75;;;7.50;99.90;;;;;;5093422;28;20028;-68
2021/12/09 11:42:29;;;;;;;57.17;32.05;;;7.50;99.90;;;;;;5093681;28;20393;-69
2021/12/09 11:44:56;;;;;;;64.25;33.63;;;7.60;99.90;;;;;;5093583;28;20020;-69
2021/12/09 11:47:22;;;;;;;54.60;32.15;;;7.50;99.90;;;;;;5075429;28;20032;-68
2021/12/09 11:49:51;;;;;;;62.60;31.83;;;7.50;99.90;;;;;;5075317;28;20043;-68
2021/12/09 11:52:18;;;;;;;67.45;35.17;;;7.50;99.90;;;;;;5093514;28;20047;-69
2021/12/09 11:54:51;;;;;;;62.28;33.75;;;7.50;99.90;;;;;;5093463;28;20088;-69
2021/12/09 11:57:33;;;;;;;66.15;35.78;;;7.50;99.90;;;;;;5093608;28;20052;-68
2021/12/09 12:12:23;;;;;;;52.35;27.58;;;7.50;99.90;;;;;;5096547;28;20120;-68
2021/12/09 12:14:52;;;;;;;52.08;27.98;;;7.50;99.90;;;;;;5107196;28;20028;-69
2021/12/09 12:20:33;;;;;;;51.33;28.90;;;7.50;99.90;;;;;;5097852;28;20090;-68
2021/12/09 12:39:59;;;;;;;56.17;28.52;;;7.50;99.90;;;;;;5096729;28;20405;-68
2021/12/09 12:50:25;;;;;;;65.97;32.08;;;7.40;99.90;;;;;;5096472;28;20025;-69
2021/12/09 12:52:55;;;;;;;60.05;30.70;;;7.50;99.90;;;;;;5078300;28;20351;-69
2021/12/09 12:55:26;;;;;;;52.00;27.85;;;7.40;99.90;;;;;;5095114;28;20031;-69
2021/12/09 12:57:53;;;;;;;63.10;30.63;;;7.50;99.90;;;;;;5096381;28;20085;-69
2021/12/09 13:00:32;;;;;;;63.97;31.55;;;7.50;99.90;;;;;;5078042;28;20385;-69
2021/12/09 13:16:47;;;;;;;56.80;28.98;;;7.40;99.90;;;;;;5082726;28;20115;-69
2021/12/09 13:19:20;;;;;;;51.85;27.17;;;7.40;99.90;;;;;;5096133;28;20115;-68
2021/12/09 13:21:51;;;;;;;57.05;29.10;;;7.40;99.90;;;;;;5096574;28;20081;-68
2021/12/09 13:24:45;;;;;;;56.42;29.67;;;7.40;99.90;;;;;;5094119;28;20039;-69
2021/12/09 13:33:55;;;;;;;66.05;35.20;;;7.40;99.90;;;;;;5095829;28;20082;-69
2021/12/09 13:50:11;;;;;;;78.80;34.28;;;7.30;99.90;;;;;;5095392;28;20039;-69
2021/12/09 13:55:14;;;;;;;89.10;39.25;;;7.30;99.90;;;;;;5095329;28;20032;-69
2021/12/09 13:57:47;;;;;;;80.50;38.42;;;7.30;99.90;;;;;;5094122;28;20024;-69
2021/12/09 14:00:51;;;;;;;83.95;38.42;;;7.30;99.90;;;;;;5093981;28;20039;-69
2021/12/09 14:03:20;;;;;;;72.68;35.45;;;7.30;99.90;;;;;;5067440;28;20040;-69
2021/12/09 14:05:54;;;;;;;70.03;33.45;;;7.30;99.90;;;;;;5088707;28;20386;-70
2021/12/09 14:08:34;;;;;;;69.72;32.70;;;7.30;99.90;;;;;;5081646;28;20458;-69
2021/12/09 14:11:14;;;;;;;75.97;35.00;;;7.30;99.90;;;;;;5077067;28;20024;-70